Time;durP1;ratioP1;P1;durP2;ratioP2;P2;SDS_P1;SDS_P2;PMS_P1;PMS_P2;Temp;Humidity;BMP_temperature;BMP_pressure;BME280_temperature;BME280_humidity;BME280_pressure;Samples;Min_cycle;Max_cycle;Signal;HPM_P1;HPM_P2
2023/06/09 00:00:51;;;;;;;;;;;;;;;23.54;46.27;101096.41;5002974;28;4661;-75
2023/06/09 00:03:21;;;;;;;;;;;;;;;23.55;46.65;101097.91;5004936;28;4498;-75
2023/06/09 00:05:48;;;;;;;;;;;;;;;23.53;46.68;101092.78;5007005;28;3940;-75
2023/06/09 00:08:15;;;;;;;;;;;;;;;23.51;46.62;101095.59;5003508;28;4118;-75
2023/06/09 00:10:42;;;;;;;;;;;;;;;23.51;46.70;101084.03;5010700;28;4149;-75
2023/06/09 00:13:09;;;;;;;;;;;;;;;23.52;46.38;101084.78;4998270;28;4135;-76
2023/06/09 00:15:36;;;;;;;;;;;;;;;23.52;46.73;101091.28;5004112;28;4206;-76
2023/06/09 00:18:02;;;;;;;;;;;;;;;23.52;46.56;101096.34;5005913;28;4233;-75
2023/06/09 00:20:33;;;;;;;;;;;;;;;23.50;46.52;101087.59;5005764;28;4141;-75
2023/06/09 00:23:00;;;;;;;;;;;;;;;23.50;46.63;101087.59;5003762;28;4177;-75
2023/06/09 00:25:27;;;;;;;;;;;;;;;23.49;46.65;101083.22;5005469;28;4121;-76
2023/06/09 00:27:53;;;;;;;;;;;;;;;23.48;46.66;101087.50;5004775;28;4397;-76
2023/06/09 00:30:20;;;;;;;;;;;;;;;23.47;46.77;101078.09;5007551;28;4246;-75
2023/06/09 00:33:04;;;;;;;;;;;;;;;23.48;46.48;101079.59;5006664;28;4068;-76
2023/06/09 00:35:31;;;;;;;;;;;;;;;23.46;46.85;101082.41;5001948;28;4209;-76
2023/06/09 00:37:57;;;;;;;;;;;;;;;23.41;46.93;101072.84;5002206;28;3965;-75
2023/06/09 00:40:24;;;;;;;;;;;;;;;23.43;46.62;101083.72;5005311;28;4014;-76
2023/06/09 00:42:51;;;;;;;;;;;;;;;23.43;46.87;101086.63;5006787;28;4145;-76
2023/06/09 00:45:18;;;;;;;;;;;;;;;23.41;46.88;101087.31;5002063;28;4155;-76
2023/06/09 00:47:44;;;;;;;;;;;;;;;23.37;46.99;101084.25;5007359;28;3974;-76
2023/06/09 00:50:12;;;;;;;;;;;;;;;23.38;46.77;101079.94;5006384;28;4145;-76
2023/06/09 00:52:39;;;;;;;;;;;;;;;23.38;46.79;101079.22;4996773;28;4389;-76
2023/06/09 00:55:06;;;;;;;;;;;;;;;23.37;46.72;101083.53;5006124;28;4193;-76
2023/06/09 00:57:33;;;;;;;;;;;;;;;23.40;46.61;101091.59;5005738;28;4082;-77
2023/06/09 01:00:00;;;;;;;;;;;;;;;23.40;46.73;101088.69;5001149;28;4387;-76
2023/06/09 01:02:27;;;;;;;;;;;;;;;23.41;46.86;101092.34;5001023;28;4196;-76
2023/06/09 01:04:54;;;;;;;;;;;;;;;23.40;46.87;101091.59;5004720;28;4234;-74
2023/06/09 01:07:24;;;;;;;;;;;;;;;23.37;46.95;101087.13;5008163;28;4339;-76
2023/06/09 01:09:59;;;;;;;;;;;;;;;23.38;46.81;101088.63;5010134;28;4212;-75
2023/06/09 01:12:40;;;;;;;;;;;;;;;23.31;46.73;101098.47;5005695;28;4070;-76
2023/06/09 01:15:08;;;;;;;;;;;;;;;23.28;47.16;101096.91;5002638;28;4111;-75
2023/06/09 01:17:36;;;;;;;;;;;;;;;23.30;46.88;101099.88;5003899;28;4072;-76
2023/06/09 01:20:03;;;;;;;;;;;;;;;23.35;46.76;101101.50;5005983;28;4155;-76
2023/06/09 01:22:42;;;;;;;;;;;;;;;23.34;46.58;101094.25;5004342;28;4027;-75
2023/06/09 01:25:19;;;;;;;;;;;;;;;23.30;47.04;101094.09;5002711;28;4241;-75
2023/06/09 01:27:45;;;;;;;;;;;;;;;23.28;46.97;101091.13;5004588;28;4110;-75
2023/06/09 01:30:12;;;;;;;;;;;;;;;23.29;46.91;101098.38;4995384;28;4273;-75
2023/06/09 01:32:39;;;;;;;;;;;;;;;23.28;47.10;101096.91;5002910;28;4060;-75
2023/06/09 01:35:06;;;;;;;;;;;;;;;23.28;46.99;101096.91;5001617;28;4315;-75
2023/06/09 01:37:32;;;;;;;;;;;;;;;23.25;46.84;101101.13;5000879;28;4772;-76
2023/06/09 01:39:59;;;;;;;;;;;;;;;23.25;46.82;101092.47;4999862;28;4270;-75
2023/06/09 01:42:25;;;;;;;;;;;;;;;23.24;47.20;101093.88;5006573;28;4566;-76
2023/06/09 01:44:52;;;;;;;;;;;;;;;23.24;47.28;101096.75;5003132;28;4159;-76
2023/06/09 01:47:19;;;;;;;;;;;;;;;23.24;47.00;101099.63;5003378;28;4042;-75
2023/06/09 01:49:45;;;;;;;;;;;;;;;23.21;47.29;101089.41;5002880;28;4209;-76
2023/06/09 01:52:15;;;;;;;;;;;;;;;23.20;47.26;101087.91;5002288;28;4141;-75
2023/06/09 01:54:55;;;;;;;;;;;;;;;23.20;47.10;101090.81;5005477;28;4261;-75
2023/06/09 01:57:54;;;;;;;;;;;;;;;23.22;47.21;101088.00;5000692;28;4109;-76
2023/06/09 02:00:21;;;;;;;;;;;;;;;23.18;46.99;101085.72;4968858;28;4298;-76
2023/06/09 02:02:48;;;;;;;;;;;;;;;23.17;47.22;101080.59;5007718;28;4143;-75
2023/06/09 02:05:15;;;;;;;;;;;;;;;23.16;47.53;101079.84;5005802;28;4138;-75
2023/06/09 02:07:44;;;;;;;;;;;;;;;23.17;47.29;101087.09;5006552;28;4193;-75
2023/06/09 02:10:10;;;;;;;;;;;;;;;23.15;47.07;101077.63;5007225;28;4182;-75
2023/06/09 02:12:37;;;;;;;;;;;;;;;23.16;47.23;101084.91;5003052;28;4209;-76
2023/06/09 02:15:04;;;;;;;;;;;;;;;23.12;47.20;101085.47;4997782;28;4105;-76
2023/06/09 02:17:33;;;;;;;;;;;;;;;23.11;47.16;101084.00;5001863;28;4004;-75
2023/06/09 02:19:59;;;;;;;;;;;;;;;23.19;47.01;101083.56;5001250;28;5173;-75
2023/06/09 02:22:26;;;;;;;;;;;;;;;23.17;46.95;101080.59;5003076;28;4365;-75
2023/06/09 02:24:52;;;;;;;;;;;;;;;23.14;47.33;101093.47;5002969;28;4264;-75
2023/06/09 02:27:19;;;;;;;;;;;;;;;23.09;47.44;101091.81;5003434;28;4032;-75
2023/06/09 02:29:45;;;;;;;;;;;;;;;23.08;47.42;101085.31;5002516;28;4167;-75
2023/06/09 02:32:12;;;;;;;;;;;;;;;23.17;46.95;101081.31;5009527;28;4241;-76
2023/06/09 02:34:38;;;;;;;;;;;;;;;23.07;47.16;101083.09;4999286;28;4203;-75
2023/06/09 02:37:07;;;;;;;;;;;;;;;23.04;47.31;101085.16;4998676;28;4230;-75
2023/06/09 02:39:34;;;;;;;;;;;;;;;23.04;47.35;101090.19;5001030;28;4331;-75
2023/06/09 02:42:01;;;;;;;;;;;;;;;23.06;47.38;101081.59;5007756;28;4149;-75
2023/06/09 02:44:28;;;;;;;;;;;;;;;23.03;47.22;101091.59;5003247;28;4232;-75
2023/06/09 02:46:55;;;;;;;;;;;;;;;23.11;47.00;101086.13;5000457;28;4390;-74
2023/06/09 02:49:21;;;;;;;;;;;;;;;23.06;47.14;101082.34;5001652;28;4250;-75
2023/06/09 02:51:47;;;;;;;;;;;;;;;23.08;47.24;101084.56;5004176;28;3990;-76
2023/06/09 02:54:15;;;;;;;;;;;;;;;23.04;47.28;101090.91;5007377;28;4182;-75
2023/06/09 02:56:44;;;;;;;;;;;;;;;23.02;47.01;101093.75;5010385;28;4172;-76
2023/06/09 02:59:11;;;;;;;;;;;;;;;23.02;47.04;101101.66;5001307;28;4143;-75
2023/06/09 03:01:39;;;;;;;;;;;;;;;23.04;47.37;101099.59;5006802;28;4039;-76
2023/06/09 03:04:06;;;;;;;;;;;;;;;22.98;47.45;101100.06;5017087;28;4130;-76
2023/06/09 03:06:36;;;;;;;;;;;;;;;23.05;47.34;101098.19;5008174;28;4395;-71
2023/06/09 03:09:06;;;;;;;;;;;;;;;23.03;47.22;101094.50;5008326;28;4353;-75
2023/06/09 03:11:33;;;;;;;;;;;;;;;22.98;47.37;101102.97;5002909;28;4268;-76
2023/06/09 03:14:00;;;;;;;;;;;;;;;23.05;47.32;101101.09;5008513;28;4237;-76
2023/06/09 03:16:27;;;;;;;;;;;;;;;22.94;47.55;101099.91;5004601;28;4451;-76
2023/06/09 03:18:54;;;;;;;;;;;;;;;23.06;47.17;101087.38;5004623;28;4110;-76
2023/06/09 03:21:24;;;;;;;;;;;;;;;23.02;47.32;101098.78;5004221;28;4321;-75
2023/06/09 03:23:52;;;;;;;;;;;;;;;22.99;47.70;101098.69;4998017;28;4312;-75
2023/06/09 03:26:18;;;;;;;;;;;;;;;23.02;47.38;101104.53;5007052;28;5061;-75
2023/06/09 03:28:45;;;;;;;;;;;;;;;22.96;47.86;101102.88;5006263;28;3948;-75
2023/06/09 03:31:13;;;;;;;;;;;;;;;23.02;47.70;101105.31;5005381;28;4194;-75
2023/06/09 03:33:41;;;;;;;;;;;;;;;23.03;47.66;101106.03;5005086;28;4191;-75
2023/06/09 03:36:08;;;;;;;;;;;;;;;23.00;47.48;101103.06;5000563;28;4248;-75
2023/06/09 03:38:35;;;;;;;;;;;;;;;23.09;47.38;101101.25;5009458;28;3999;-76
2023/06/09 03:41:03;;;;;;;;;;;;;;;22.99;47.86;101104.47;5010833;28;4199;-76
2023/06/09 03:43:29;;;;;;;;;;;;;;;23.05;47.89;101094.56;4999020;28;4213;-75
2023/06/09 03:45:56;;;;;;;;;;;;;;;23.04;47.72;101107.50;5007048;28;4184;-75
2023/06/09 03:48:23;;;;;;;;;;;;;;;23.11;47.53;101103.47;4991641;28;4039;-75
2023/06/09 03:50:50;;;;;;;;;;;;;;;23.07;47.53;101106.22;5009650;28;4180;-75
2023/06/09 03:53:17;;;;;;;;;;;;;;;23.07;47.83;101106.22;5012820;28;4235;-76
2023/06/09 03:55:44;;;;;;;;;;;;;;;22.99;47.73;101107.34;5008754;28;4135;-76
2023/06/09 03:58:12;;;;;;;;;;;;;;;23.06;47.87;101101.81;5008728;28;4396;-76
2023/06/09 04:00:40;;;;;;;;;;;;;;;23.07;47.64;101106.22;5001060;28;4489;-76
2023/06/09 04:03:07;;;;;;;;;;;;;;;22.87;48.41;101112.63;5005561;28;4317;-73
2023/06/09 04:05:34;;;;;;;;;;;;;;;22.18;50.05;101110.47;5012102;28;4126;-77
2023/06/09 04:08:01;;;;;;;;;;;;;;;22.00;50.59;101113.31;5002525;28;4091;-76
2023/06/09 04:10:27;;;;;;;;;;;;;;;21.91;51.00;101102.81;5007763;28;4056;-77
2023/06/09 04:12:54;;;;;;;;;;;;;;;21.57;51.37;101102.03;5010371;28;4955;-76
2023/06/09 04:15:20;;;;;;;;;;;;;;;21.63;51.46;101105.94;5002407;28;4015;-76
2023/06/09 04:17:50;;;;;;;;;;;;;;;21.49;51.63;101108.19;5010422;28;4257;-76
2023/06/09 04:20:22;;;;;;;;;;;;;;;21.51;51.41;101100.38;5010466;28;4234;-76
2023/06/09 04:22:49;;;;;;;;;;;;;;;21.50;51.40;101101.00;5011711;28;4055;-75
2023/06/09 04:25:25;;;;;;;;;;;;;;;21.48;51.45;101100.91;4985588;28;4255;-75
2023/06/09 04:27:55;;;;;;;;;;;;;;;21.49;51.31;101102.41;5010738;28;4149;-76
2023/06/09 04:30:29;;;;;;;;;;;;;;;21.56;50.69;101101.28;5010629;28;4187;-75
2023/06/09 04:32:58;;;;;;;;;;;;;;;21.55;50.68;101094.03;5006751;28;4558;-75
2023/06/09 04:35:24;;;;;;;;;;;;;;;21.56;50.59;101101.28;5010947;28;4081;-75
2023/06/09 04:37:51;;;;;;;;;;;;;;;21.52;50.77;101104.72;5009025;28;4595;-74
2023/06/09 04:40:22;;;;;;;;;;;;;;;21.49;50.75;101100.28;5010088;28;4150;-75
2023/06/09 04:42:51;;;;;;;;;;;;;;;21.52;50.67;101101.09;5007030;28;4182;-76
2023/06/09 04:45:18;;;;;;;;;;;;;;;21.47;50.89;101105.94;5003607;28;5035;-75
2023/06/09 04:47:48;;;;;;;;;;;;;;;21.52;50.17;101101.09;5011419;28;4127;-75
2023/06/09 04:50:15;;;;;;;;;;;;;;;21.48;49.92;101101.66;5000122;28;3982;-75
2023/06/09 04:52:44;;;;;;;;;;;;;;;21.48;49.82;101103.78;4990934;28;4161;-75
2023/06/09 04:55:12;;;;;;;;;;;;;;;21.54;50.13;101101.19;5019919;28;4185;-76
2023/06/09 04:57:39;;;;;;;;;;;;;;;21.57;49.81;101102.78;5004033;28;4170;-75
2023/06/09 05:00:07;;;;;;;;;;;;;;;21.56;49.43;101095.53;5006191;28;4236;-75
2023/06/09 05:02:34;;;;;;;;;;;;;;;21.45;49.45;101102.22;5024283;28;4239;-71
2023/06/09 05:05:01;;;;;;;;;;;;;;;21.56;49.14;101095.53;5001726;28;4231;-74
2023/06/09 05:07:28;;;;;;;;;;;;;;;21.50;49.08;101098.88;4997455;28;4083;-71
2023/06/09 05:09:54;;;;;;;;;;;;;;;21.55;48.54;101096.91;4999581;28;4680;-72
2023/06/09 05:12:21;;;;;;;;;;;;;;;21.57;47.73;101094.13;5012780;28;4239;-69
2023/06/09 05:14:48;;;;;;;;;;;;;;;21.69;47.32;101091.03;5016246;28;4182;-69
2023/06/09 05:17:15;;;;;;;;;;;;;;;21.73;46.94;101094.84;5005174;28;4201;-69
2023/06/09 05:19:42;;;;;;;;;;;;;;;21.76;46.26;101098.56;5015900;28;4171;-69
2023/06/09 05:22:13;;;;;;;;;;;;;;;21.88;45.65;101102.00;5005212;28;4035;-69
2023/06/09 05:24:39;;;;;;;;;;;;;;;21.80;44.94;101095.13;5003188;28;4028;-69
2023/06/09 05:27:06;;;;;;;;;;;;;;;21.83;44.58;101088.81;5002896;28;4198;-72
2023/06/09 05:29:33;;;;;;;;;;;;;;;21.81;43.70;101090.88;4998268;28;4011;-77
2023/06/09 05:32:00;;;;;;;;;;;;;;;21.88;42.84;101102.00;4994375;28;7009;-71
2023/06/09 05:34:26;;;;;;;;;;;;;;;21.90;42.34;101101.34;5011263;28;4322;-78
2023/06/09 05:36:53;;;;;;;;;;;;;;;21.61;41.11;101102.22;5013739;28;4116;-77
2023/06/09 05:39:19;;;;;;;;;;;;;;;21.59;40.71;101110.78;5013170;28;4135;-79
2023/06/09 05:41:45;;;;;;;;;;;;;;;21.77;40.03;101100.06;5016479;28;4019;-77
2023/06/09 05:44:12;;;;;;;;;;;;;;;22.06;39.84;101110.72;5010778;28;4155;-80
2023/06/09 05:46:38;;;;;;;;;;;;;;;22.13;39.33;101103.06;5006559;28;4133;-79
2023/06/09 05:49:05;;;;;;;;;;;;;;;22.18;38.41;101098.94;5009586;28;4474;-76
2023/06/09 05:51:32;;;;;;;;;;;;;;;22.45;38.00;101106.59;5008476;28;4206;-75
2023/06/09 05:53:58;;;;;;;;;;;;;;;22.63;36.88;101112.41;5008037;28;4254;-79
2023/06/09 05:56:25;;;;;;;;;;;;;;;22.47;37.09;101115.34;5006493;28;4006;-76
2023/06/09 05:58:52;;;;;;;;;;;;;;;22.71;36.68;101111.97;5008400;28;3968;-76
2023/06/09 06:01:19;;;;;;;;;;;;;;;22.45;36.43;101120.28;5003657;28;4123;-76
2023/06/09 06:03:46;;;;;;;;;;;;;;;22.13;36.53;101115.34;5006338;28;4134;-77
2023/06/09 06:06:13;;;;;;;;;;;;;;;22.18;36.81;101117.00;5002859;28;3879;-75
2023/06/09 06:08:40;;;;;;;;;;;;;;;22.22;36.78;101115.69;5006388;28;3993;-76
2023/06/09 06:11:07;;;;;;;;;;;;;;;22.08;36.25;101113.69;5006926;28;5485;-72
2023/06/09 06:13:34;;;;;;;;;;;;;;;22.21;36.43;101114.19;4997535;28;4394;-72
2023/06/09 06:16:00;;;;;;;;;;;;;;;22.30;36.08;101118.94;5002807;28;4349;-72
2023/06/09 06:18:27;;;;;;;;;;;;;;;22.32;36.03;101116.16;5000866;28;4128;-72
2023/06/09 06:20:53;;;;;;;;;;;;;;;22.33;35.85;101120.50;4999349;28;4149;-73
2023/06/09 06:23:20;;;;;;;;;;;;;;;22.31;36.19;101124.06;5002717;28;4198;-72
2023/06/09 06:25:46;;;;;;;;;;;;;;;22.37;36.39;101118.53;5002399;28;4228;-73
2023/06/09 06:28:13;;;;;;;;;;;;;;;22.21;35.58;101132.28;4997283;28;4346;-73
2023/06/09 06:30:40;;;;;;;;;;;;;;;22.36;35.86;101124.97;5005792;28;4134;-72
2023/06/09 06:33:07;;;;;;;;;;;;;;;22.38;35.50;101125.06;5008115;28;4002;-72
2023/06/09 06:35:34;;;;;;;;;;;;;;;22.40;35.90;101133.78;5006722;28;4064;-73
2023/06/09 06:38:00;;;;;;;;;;;;;;;22.37;35.90;101130.06;5001875;28;4204;-73
2023/06/09 06:40:27;;;;;;;;;;;;;;;22.44;35.64;101131.06;5004527;28;4478;-72
2023/06/09 06:42:54;;;;;;;;;;;;;;;22.43;35.72;101126.72;5003698;28;5501;-73
2023/06/09 06:45:26;;;;;;;;;;;;;;;22.44;35.17;101125.31;5015962;28;4156;-73
2023/06/09 06:47:53;;;;;;;;;;;;;;;22.51;36.15;101121.28;5004466;28;4104;-72
2023/06/09 06:50:19;;;;;;;;;;;;;;;22.50;35.45;101131.34;5006675;28;4013;-73
2023/06/09 06:52:50;;;;;;;;;;;;;;;22.47;35.74;101126.88;5001304;28;4010;-72
2023/06/09 06:55:17;;;;;;;;;;;;;;;22.55;36.14;101127.22;5006097;28;4289;-72
2023/06/09 06:57:43;;;;;;;;;;;;;;;22.58;36.26;101134.53;4998344;28;4990;-72
2023/06/09 07:00:16;;;;;;;;;;;;;;;23.00;35.85;101139.88;4997778;28;4154;-67
2023/06/09 07:02:46;;;;;;;;;;;;;;;23.20;35.90;101142.81;5008479;28;4383;-68
2023/06/09 07:05:13;;;;;;;;;;;;;;;23.37;35.56;101139.16;5002952;28;4206;-68
2023/06/09 07:07:40;;;;;;;;;;;;;;;23.47;35.78;101132.28;5003097;28;4040;-68
2023/06/09 07:10:09;;;;;;;;;;;;;;;23.41;35.56;101139.31;5000944;28;4546;-68
2023/06/09 07:12:36;;;;;;;;;;;;;;;23.58;35.90;101134.16;5006935;28;4106;-69
2023/06/09 07:15:02;;;;;;;;;;;;;;;23.57;35.54;101138.44;5011506;28;4394;-67
2023/06/09 07:17:29;;;;;;;;;;;;;;;23.40;35.43;101148.66;5013215;28;4164;-68
2023/06/09 07:19:56;;;;;;;;;;;;;;;22.97;35.70;101141.91;5005944;28;4145;-69
2023/06/09 07:22:22;;;;;;;;;;;;;;;23.18;35.75;101146.38;5008224;28;4116;-66
2023/06/09 07:24:49;;;;;;;;;;;;;;;23.17;35.52;101147.03;5002949;28;4177;-71
2023/06/09 07:27:15;;;;;;;;;;;;;;;23.19;35.85;101150.00;5008218;28;4142;-72
2023/06/09 07:29:42;;;;;;;;;;;;;;;23.38;36.47;101146.41;5000209;28;5388;-74
2023/06/09 07:32:09;;;;;;;;;;;;;;;23.27;35.98;101152.47;5008744;28;4190;-76
2023/06/09 07:34:35;;;;;;;;;;;;;;;23.42;36.13;101140.78;5015435;28;4013;-74
2023/06/09 07:37:05;;;;;;;;;;;;;;;23.47;36.42;101147.47;5009828;28;4334;-69
2023/06/09 07:39:33;;;;;;;;;;;;;;;23.44;36.12;101148.06;5008461;28;4181;-70
2023/06/09 07:42:00;;;;;;;;;;;;;;;23.51;35.81;101152.66;5004990;28;4397;-72
2023/06/09 07:44:27;;;;;;;;;;;;;;;23.40;36.57;101143.59;5005989;28;4431;-75
2023/06/09 07:46:53;;;;;;;;;;;;;;;23.36;36.42;101143.44;5007960;28;4037;-74
2023/06/09 07:49:20;;;;;;;;;;;;;;;23.51;36.26;101138.97;5003450;28;4165;-74
2023/06/09 07:51:49;;;;;;;;;;;;;;;23.49;36.30;101144.66;5005943;28;4266;-77
2023/06/09 07:54:16;;;;;;;;;;;;;;;23.55;36.54;101136.22;5005408;28;4128;-76
2023/06/09 07:56:48;;;;;;;;;;;;;;;23.62;36.84;101143.72;5007869;28;4094;-77
2023/06/09 07:59:18;;;;;;;;;;;;;;;23.69;37.14;101141.78;5005418;28;4132;-76
2023/06/09 08:01:44;;;;;;;;;;;;;;;23.66;36.99;101140.22;5009165;28;4050;-75
2023/06/09 08:04:11;;;;;;;;;;;;;;;23.51;37.25;101138.22;5009229;28;4137;-73
2023/06/09 08:06:37;;;;;;;;;;;;;;;23.62;37.54;101137.19;5009016;28;4031;-67
2023/06/09 08:09:04;;;;;;;;;;;;;;;23.71;37.05;101136.09;5003076;28;4342;-72
2023/06/09 08:11:30;;;;;;;;;;;;;;;23.79;37.37;101136.41;5005113;28;4207;-69
2023/06/09 08:13:57;;;;;;;;;;;;;;;23.81;37.58;101135.75;5005654;28;4175;-69
2023/06/09 08:16:24;;;;;;;;;;;;;;;23.61;37.46;101145.09;5003739;28;4218;-68
2023/06/09 08:18:50;;;;;;;;;;;;;;;23.77;36.84;101145.00;4999510;28;5586;-70
2023/06/09 08:21:17;;;;;;;;;;;;;;;23.90;37.07;101145.47;4993355;28;4435;-71
2023/06/09 08:23:44;;;;;;;;;;;;;;;23.79;37.69;101136.41;5003681;28;4042;-73
2023/06/09 08:26:10;;;;;;;;;;;;;;;23.92;37.67;101137.59;5007954;28;4162;-71
2023/06/09 08:28:38;;;;;;;;;;;;;;;23.89;37.54;101138.19;5002280;28;4505;-70
2023/06/09 08:31:05;;;;;;;;;;;;;;;23.93;38.13;101138.31;5010239;28;4123;-67
2023/06/09 08:33:33;;;;;;;;;;;;;;;23.83;37.86;101135.81;5005099;28;3941;-69
2023/06/09 08:36:02;;;;;;;;;;;;;;;23.85;38.40;101132.28;5001307;28;4439;-68
2023/06/09 08:38:32;;;;;;;;;;;;;;;23.82;38.72;101140.88;4999918;28;4101;-69
2023/06/09 08:41:07;;;;;;;;;;;;;;;23.96;38.75;101136.97;5006550;28;4087;-67
2023/06/09 08:43:33;;;;;;;;;;;;;;;23.85;38.72;101132.28;5001172;28;4164;-68
2023/06/09 08:46:01;;;;;;;;;;;;;;;24.03;38.56;101141.59;5000378;28;4087;-69
2023/06/09 08:48:29;;;;;;;;;;;;;;;24.07;38.56;101141.00;5003370;28;4067;-70
2023/06/09 08:50:55;;;;;;;;;;;;;;;24.08;38.84;101143.22;5014319;28;4703;-69
2023/06/09 08:53:21;;;;;;;;;;;;;;;23.90;39.13;101139.69;4991646;28;4293;-67
2023/06/09 08:55:48;;;;;;;;;;;;;;;23.97;39.63;101138.47;4991234;28;4393;-68
2023/06/09 08:58:15;;;;;;;;;;;;;;;23.93;39.49;101147.75;5001538;28;4160;-66
2023/06/09 09:00:41;;;;;;;;;;;;;;;23.88;39.45;101136.72;5004481;28;4256;-72
2023/06/09 09:03:08;;;;;;;;;;;;;;;23.79;39.57;101147.97;5005493;28;4129;-70
2023/06/09 09:05:35;;;;;;;;;;;;;;;23.83;39.76;101135.81;5003264;28;4092;-70
2023/06/09 09:08:02;;;;;;;;;;;;;;;23.81;39.85;101145.16;5005450;28;5142;-70
2023/06/09 09:10:28;;;;;;;;;;;;;;;23.77;39.93;101141.38;5007528;28;4205;-72
2023/06/09 09:12:54;;;;;;;;;;;;;;;23.75;40.14;101139.13;5005411;28;4030;-70
2023/06/09 09:15:22;;;;;;;;;;;;;;;23.73;40.19;101141.94;5003004;28;4544;-70
2023/06/09 09:17:49;;;;;;;;;;;;;;;23.72;40.49;101131.78;5008691;28;4164;-69
2023/06/09 09:20:16;;;;;;;;;;;;;;;23.70;40.21;101140.38;5000217;28;3974;-70
2023/06/09 09:22:51;;;;;;;;;;;;;;;23.71;40.49;101141.88;5004331;28;4027;-70
2023/06/09 09:25:21;;;;;;;;;;;;;;;23.70;40.44;101128.81;5001105;28;4207;-70
2023/06/09 09:27:57;;;;;;;;;;;;;;;23.71;40.51;101133.19;5001508;28;4084;-69
2023/06/09 09:30:39;;;;;;;;;;;;;;;23.70;40.72;101140.38;5005344;28;4275;-71
2023/06/09 09:33:09;;;;;;;;;;;;;;;23.78;40.83;101125.53;5005288;28;3983;-71
2023/06/09 09:35:37;;;;;;;;;;;;;;;23.79;40.62;101130.63;5010782;28;4118;-71
2023/06/09 09:38:03;;;;;;;;;;;;;;;23.77;40.66;101127.66;5004226;28;4171;-70
2023/06/09 09:40:30;;;;;;;;;;;;;;;23.77;40.71;101126.91;5011957;28;4176;-70
2023/06/09 09:43:00;;;;;;;;;;;;;;;23.76;40.59;101125.44;5008533;28;4336;-69
2023/06/09 09:45:27;;;;;;;;;;;;;;;23.76;40.60;101128.34;5003352;28;4149;-71
2023/06/09 09:47:59;;;;;;;;;;;;;;;23.78;40.95;101134.19;5006029;28;4031;-76
2023/06/09 09:50:25;;;;;;;;;;;;;;;23.82;40.91;101131.44;5001906;28;4001;-69
2023/06/09 09:52:52;;;;;;;;;;;;;;;23.83;41.09;101135.81;5003070;28;4164;-69
2023/06/09 09:55:18;;;;;;;;;;;;;;;23.83;40.76;101127.13;5007732;28;4132;-71
2023/06/09 09:57:45;;;;;;;;;;;;;;;23.82;41.13;101134.31;5006976;28;4219;-70
2023/06/09 10:00:12;;;;;;;;;;;;;;;23.82;40.88;101117.72;5002803;28;4309;-69
2023/06/09 10:02:41;;;;;;;;;;;;;;;23.82;41.02;101132.19;5007176;28;4154;-70
2023/06/09 10:05:07;;;;;;;;;;;;;;;23.82;40.95;101132.19;5003017;28;4215;-70
2023/06/09 10:07:35;;;;;;;;;;;;;;;23.85;40.93;101138.06;5001053;28;4148;-70
2023/06/09 10:10:01;;;;;;;;;;;;;;;23.85;41.15;101135.16;5003034;28;4450;-69
2023/06/09 10:12:27;;;;;;;;;;;;;;;23.82;41.48;101126.41;5001778;28;4280;-68
2023/06/09 10:14:54;;;;;;;;;;;;;;;24.15;42.47;101123.94;4998898;28;4334;-69
2023/06/09 10:17:21;;;;;;;;;;;;;;;24.53;41.57;101130.28;5004999;28;4051;-68
2023/06/09 10:19:49;;;;;;;;;;;;;;;24.70;41.45;101122.16;5011289;28;4273;-76
2023/06/09 10:22:15;;;;;;;;;;;;;;;24.74;41.51;101130.97;5007208;28;4095;-77
2023/06/09 10:24:41;;;;;;;;;;;;;;;24.80;41.21;101125.38;5007921;28;4327;-73
2023/06/09 10:27:08;;;;;;;;;;;;;;;24.89;41.54;101118.44;5009158;28;4326;-73
2023/06/09 10:29:34;;;;;;;;;;;;;;;24.90;41.72;101122.06;5011967;28;4126;-70
2023/06/09 10:32:01;;;;;;;;;;;;;;;25.03;41.96;101115.97;5004545;28;4061;-70
2023/06/09 10:34:27;;;;;;;;;;;;;;;25.03;41.56;101107.28;5005935;28;4249;-70
2023/06/09 10:36:54;;;;;;;;;;;;;;;25.08;41.68;101108.16;5018538;28;4061;-69
2023/06/09 10:39:22;;;;;;;;;;;;;;;25.11;41.74;101106.06;5010926;28;4012;-70
2023/06/09 10:41:58;;;;;;;;;;;;;;;25.07;41.72;101100.88;5014938;28;4001;-70
2023/06/09 10:44:27;;;;;;;;;;;;;;;24.88;41.59;101105.38;5008156;28;4295;-68
2023/06/09 10:46:54;;;;;;;;;;;;;;;24.74;41.97;101102.00;5007695;28;4176;-68
2023/06/09 10:49:23;;;;;;;;;;;;;;;24.69;42.23;101104.03;5008749;28;4068;-68
2023/06/09 10:51:50;;;;;;;;;;;;;;;24.72;41.93;101096.19;5005932;28;4483;-70
2023/06/09 10:54:16;;;;;;;;;;;;;;;24.79;42.24;101095.69;5014610;28;5236;-71
2023/06/09 10:56:53;;;;;;;;;;;;;;;24.79;42.42;101097.84;5017672;28;4089;-67
2023/06/09 10:59:25;;;;;;;;;;;;;;;24.79;42.34;101086.25;5005839;28;4225;-67
2023/06/09 11:02:03;;;;;;;;;;;;;;;24.85;42.15;101086.44;5000860;28;4158;-67
2023/06/09 11:04:41;;;;;;;;;;;;;;;24.89;42.31;101080.78;5011162;28;4398;-66
2023/06/09 11:07:09;;;;;;;;;;;;;;;24.90;42.23;101090.19;5011417;28;4496;-67
2023/06/09 11:09:36;;;;;;;;;;;;;;;24.88;42.12;101080.03;5015244;28;4245;-68
2023/06/09 11:12:02;;;;;;;;;;;;;;;24.96;42.38;101085.34;5012796;28;4137;-69
2023/06/09 11:14:52;;;;;;;;;;;;;;;24.97;42.12;101081.03;5015275;28;4039;-72
2023/06/09 11:17:25;;;;;;;;;;;;;;;24.75;42.68;101089.03;5006497;28;4129;-72
2023/06/09 11:19:52;;;;;;;;;;;;;;;24.57;43.09;101087.00;5003589;28;4255;-71
2023/06/09 11:22:18;;;;;;;;;;;;;;;24.49;43.38;101078.06;5001133;28;4103;-72
2023/06/09 11:24:46;;;;;;;;;;;;;;;24.47;43.59;101069.31;5001837;28;4061;-71
2023/06/09 11:27:21;;;;;;;;;;;;;;;24.44;43.65;101080.06;5006228;28;4160;-70
2023/06/09 11:30:04;;;;;;;;;;;;;;;24.43;43.77;101066.25;5001537;28;4264;-69
2023/06/09 11:32:44;;;;;;;;;;;;;;;24.42;43.87;101082.91;5005133;28;4114;-68
2023/06/09 11:35:31;;;;;;;;;;;;;;;24.56;44.02;101071.06;5006150;28;4224;-75
2023/06/09 11:37:57;;;;;;;;;;;;;;;24.99;43.60;101072.41;4995792;28;4001;-69
2023/06/09 11:40:27;;;;;;;;;;;;;;;25.08;43.46;101074.13;5005963;28;4343;-69
2023/06/09 11:42:54;;;;;;;;;;;;;;;25.15;43.48;101065.63;5003827;28;3953;-68
2023/06/09 11:45:23;;;;;;;;;;;;;;;25.12;43.47;101066.97;5001464;28;4103;-70
2023/06/09 11:47:56;;;;;;;;;;;;;;;25.22;43.29;101064.41;5005605;28;4122;-72
2023/06/09 11:50:43;;;;;;;;;;;;;;;25.08;43.52;101062.56;5006726;28;5069;-74
2023/06/09 11:53:15;;;;;;;;;;;;;;;25.05;43.64;101060.25;5000815;28;4156;-72
2023/06/09 11:55:42;;;;;;;;;;;;;;;25.14;43.75;101058.34;4999480;28;4112;-76
2023/06/09 11:58:09;;;;;;;;;;;;;;;25.18;43.55;101059.25;5000661;28;4369;-77
2023/06/09 12:00:39;;;;;;;;;;;;;;;25.20;43.78;101055.66;5001548;28;4045;-77
2023/06/09 12:03:06;;;;;;;;;;;;;;;25.24;43.92;101044.19;5007663;28;4411;-73
2023/06/09 12:05:33;;;;;;;;;;;;;;;25.34;44.24;101044.47;5005939;28;4140;-72
2023/06/09 12:08:02;;;;;;;;;;;;;;;25.44;44.77;101041.84;5003516;28;4157;-73
2023/06/09 12:10:28;;;;;;;;;;;;;;;25.45;44.61;101046.25;5000286;28;4361;-73
2023/06/09 12:12:56;;;;;;;;;;;;;;;25.38;44.13;101035.91;5002487;28;4539;-67
2023/06/09 12:15:23;;;;;;;;;;;;;;;25.12;44.42;101043.81;4996148;28;4087;-68
2023/06/09 12:17:50;;;;;;;;;;;;;;;24.98;44.77;101041.94;5005184;28;4042;-70
2023/06/09 12:20:22;;;;;;;;;;;;;;;24.97;45.12;101040.47;5009633;28;4164;-70
2023/06/09 12:22:49;;;;;;;;;;;;;;;24.99;45.27;101045.59;5008926;28;4191;-70
2023/06/09 12:25:17;;;;;;;;;;;;;;;25.03;45.36;101039.91;5007092;28;4190;-72
2023/06/09 12:27:43;;;;;;;;;;;;;;;25.09;45.62;101045.91;5004738;28;4267;-72
2023/06/09 12:30:10;;;;;;;;;;;;;;;25.26;45.47;101041.34;5008912;28;4271;-73
2023/06/09 12:32:37;;;;;;;;;;;;;;;25.32;45.54;101041.53;5009591;28;4059;-72
2023/06/09 12:35:03;;;;;;;;;;;;;;;25.25;45.41;101034.81;5007931;28;4124;-75
2023/06/09 12:37:36;;;;;;;;;;;;;;;25.39;45.57;101036.63;5001118;28;5236;-71
2023/06/09 12:40:04;;;;;;;;;;;;;;;25.39;45.62;101043.16;5012121;28;4139;-70
2023/06/09 12:42:43;;;;;;;;;;;;;;;25.39;45.53;101037.38;5015642;28;4228;-69
2023/06/09 12:45:12;;;;;;;;;;;;;;;25.44;45.75;101036.06;4993560;28;4205;-68
2023/06/09 12:47:48;;;;;;;;;;;;;;;25.47;45.83;101031.81;5011114;28;4071;-70
2023/06/09 12:50:15;;;;;;;;;;;;;;;25.49;46.21;101028.97;5007477;28;4190;-67
2023/06/09 12:52:41;;;;;;;;;;;;;;;25.49;45.82;101028.97;5009346;28;3891;-67